createdAt,value
2023-02-19T00:00:41.337Z,9.17
2023-02-19T00:01:41.305Z,9.15
2023-02-19T00:02:41.290Z,9.15
2023-02-19T00:03:41.379Z,9.17
2023-02-19T00:04:41.293Z,9.18
2023-02-19T00:05:41.259Z,9.17
2023-02-19T00:06:41.237Z,9.18
2023-02-19T00:07:41.250Z,9.17
2023-02-19T00:08:41.221Z,9.21
2023-02-19T00:09:41.215Z,9.20
2023-02-19T00:10:41.207Z,9.23
2023-02-19T00:11:41.208Z,9.23
2023-02-19T00:12:41.195Z,9.23
2023-02-19T00:13:41.174Z,9.23
2023-02-19T00:14:41.192Z,9.24
2023-02-19T00:15:41.207Z,9.26
2023-02-19T00:16:41.141Z,9.23
2023-02-19T00:17:41.117Z,9.24
2023-02-19T00:18:41.100Z,9.24
2023-02-19T00:19:41.123Z,9.26
2023-02-19T00:20:41.115Z,9.29
2023-02-19T00:21:41.088Z,9.31
2023-02-19T00:22:41.116Z,9.29
2023-02-19T00:23:41.080Z,9.32
2023-02-19T00:24:41.045Z,9.32
2023-02-19T00:25:41.039Z,9.32
2023-02-19T00:26:41.077Z,9.32
2023-02-19T00:27:41.103Z,9.31
2023-02-19T00:28:41.000Z,9.31
2023-02-19T00:29:41.016Z,9.31
2023-02-19T00:30:41.001Z,9.31
2023-02-19T00:31:41.080Z,9.31
2023-02-19T00:32:41.046Z,9.29
2023-02-19T00:33:40.990Z,9.29
2023-02-19T00:34:40.964Z,9.28
2023-02-19T00:35:41.245Z,9.29
2023-02-19T00:36:41.070Z,9.28
2023-02-19T00:37:40.988Z,9.29
2023-02-19T00:38:40.959Z,9.32
2023-02-19T00:39:41.539Z,9.32
2023-02-19T00:40:40.902Z,9.35
2023-02-19T00:41:41.561Z,9.33
2023-02-19T00:42:40.836Z,9.39
2023-02-19T00:43:40.859Z,9.39
2023-02-19T00:44:40.872Z,9.42
2023-02-19T00:45:40.828Z,9.40
2023-02-19T00:46:40.861Z,9.40
2023-02-19T00:47:40.836Z,9.42
2023-02-19T00:48:40.807Z,9.42
2023-02-19T00:49:40.810Z,9.42
2023-02-19T00:50:40.771Z,9.40
2023-02-19T00:51:40.998Z,9.38
2023-02-19T00:52:40.771Z,9.36
2023-02-19T00:53:40.819Z,9.40
2023-02-19T00:54:40.737Z,9.38
2023-02-19T00:55:40.755Z,9.36
2023-02-19T00:56:40.696Z,9.36
2023-02-19T00:57:40.773Z,9.38
2023-02-19T00:58:40.712Z,9.38
2023-02-19T00:59:40.708Z,9.36
2023-02-19T01:00:40.672Z,9.36
2023-02-19T01:01:40.724Z,9.36
2023-02-19T01:02:40.646Z,9.35
2023-02-19T01:03:40.677Z,9.32
2023-02-19T01:04:40.690Z,9.33
2023-02-19T01:05:40.611Z,9.32
2023-02-19T01:06:40.596Z,9.33
2023-02-19T01:07:40.617Z,9.32
2023-02-19T01:08:40.578Z,9.35
2023-02-19T01:09:40.572Z,9.32
2023-02-19T01:10:40.561Z,9.28
2023-02-19T01:11:40.539Z,9.29
2023-02-19T01:12:40.532Z,9.28
2023-02-19T01:13:40.535Z,9.31
2023-02-19T01:14:40.514Z,9.29
2023-02-19T01:15:40.494Z,9.26
2023-02-19T01:16:40.490Z,9.28
2023-02-19T01:17:40.482Z,9.26
2023-02-19T01:18:40.474Z,9.26
2023-02-19T01:19:40.492Z,9.26
2023-02-19T01:20:40.453Z,9.29
2023-02-19T01:21:40.463Z,9.31
2023-02-19T01:22:40.408Z,9.26
2023-02-19T01:23:40.408Z,9.26
2023-02-19T01:24:40.379Z,9.28
2023-02-19T01:25:40.399Z,9.26
2023-02-19T01:26:40.401Z,9.26
2023-02-19T01:27:40.403Z,9.28
2023-02-19T01:28:40.372Z,9.26
2023-02-19T01:29:40.428Z,9.28
2023-02-19T01:30:40.353Z,9.26
2023-02-19T01:31:40.411Z,9.28
2023-02-19T01:32:40.308Z,9.28
2023-02-19T01:33:40.318Z,9.29
2023-02-19T01:34:40.283Z,9.28
2023-02-19T01:35:40.289Z,9.28
2023-02-19T01:36:40.303Z,9.28
2023-02-19T01:37:40.274Z,9.31
2023-02-19T01:38:40.251Z,9.28
2023-02-19T01:39:40.298Z,9.28
2023-02-19T01:40:40.250Z,9.26
2023-02-19T01:41:40.239Z,9.29
2023-02-19T01:42:40.253Z,9.26
2023-02-19T01:43:40.204Z,9.26
2023-02-19T01:44:40.205Z,9.26
2023-02-19T01:45:40.223Z,9.24
2023-02-19T01:46:40.249Z,9.24
2023-02-19T01:47:40.176Z,9.23
2023-02-19T01:48:40.194Z,9.23
2023-02-19T01:49:40.175Z,9.26
2023-02-19T01:50:40.158Z,9.26
2023-02-19T01:51:40.126Z,9.26
2023-02-19T01:52:40.116Z,9.24
2023-02-19T01:53:40.111Z,9.26
2023-02-19T01:54:40.077Z,9.26
2023-02-19T01:55:40.069Z,9.23
2023-02-19T01:56:40.061Z,9.26
2023-02-19T01:57:40.060Z,9.26
2023-02-19T01:58:40.034Z,9.28
2023-02-19T01:59:40.055Z,9.26
2023-02-19T02:00:50.153Z,9.26
2023-02-19T02:01:40.140Z,9.28
2023-02-19T02:02:40.004Z,9.29
2023-02-19T02:03:50.031Z,9.29
2023-02-19T02:04:39.967Z,9.35
2023-02-19T02:05:40.013Z,9.36
2023-02-19T02:06:39.953Z,9.38
2023-02-19T02:07:39.973Z,9.38
2023-02-19T02:08:39.941Z,9.36
2023-02-19T02:09:39.948Z,9.38
2023-02-19T02:10:39.918Z,9.39
2023-02-19T02:11:39.932Z,9.38
2023-02-19T02:12:39.915Z,9.38
2023-02-19T02:13:39.890Z,9.40
2023-02-19T02:14:39.900Z,9.40
2023-02-19T02:15:39.890Z,9.46
2023-02-19T02:16:39.859Z,9.46
2023-02-19T02:17:39.841Z,9.46
2023-02-19T02:18:39.842Z,9.43
2023-02-19T02:19:39.831Z,9.42
2023-02-19T02:20:39.825Z,9.43
2023-02-19T02:21:39.840Z,9.43
2023-02-19T02:22:39.802Z,9.46
2023-02-19T02:23:39.795Z,9.43
2023-02-19T02:24:39.763Z,9.46
2023-02-19T02:25:51.766Z,9.48
2023-02-19T02:26:51.767Z,9.50
2023-02-19T02:27:39.738Z,9.51
2023-02-19T02:28:39.708Z,9.51
2023-02-19T02:29:39.749Z,9.53
2023-02-19T02:30:39.714Z,9.51
2023-02-19T02:31:40.343Z,9.51
2023-02-19T02:32:39.696Z,9.51
2023-02-19T02:33:39.722Z,9.53
2023-02-19T02:34:39.670Z,9.54
2023-02-19T02:35:39.645Z,9.54
2023-02-19T02:36:39.643Z,9.54
2023-02-19T02:37:39.653Z,9.54
2023-02-19T02:38:39.622Z,9.57
2023-02-19T02:39:39.628Z,9.57
2023-02-19T02:40:39.635Z,9.57
2023-02-19T02:41:39.607Z,9.58
2023-02-19T02:42:39.579Z,9.58
2023-02-19T02:43:39.574Z,9.57
2023-02-19T02:44:39.556Z,9.58
2023-02-19T02:45:39.673Z,9.58
2023-02-19T02:46:39.514Z,9.64
2023-02-19T02:47:39.540Z,9.69
2023-02-19T02:48:39.635Z,9.69
2023-02-19T02:49:39.513Z,9.71
2023-02-19T02:50:39.472Z,9.75
2023-02-19T02:51:39.484Z,9.75
2023-02-19T02:52:39.469Z,9.79
2023-02-19T02:53:39.476Z,9.79
2023-02-19T02:54:39.511Z,9.79
2023-02-19T02:55:39.463Z,9.81
2023-02-19T02:56:39.472Z,9.83
2023-02-19T02:57:39.417Z,9.81
2023-02-19T02:58:39.393Z,9.83
2023-02-19T02:59:39.409Z,9.83
2023-02-19T03:00:39.374Z,9.86
2023-02-19T03:01:39.366Z,9.83
2023-02-19T03:02:50.635Z,9.79
2023-02-19T03:03:49.452Z,9.83
2023-02-19T03:04:39.325Z,9.89
2023-02-19T03:05:39.348Z,9.86
2023-02-19T03:06:39.323Z,9.83
2023-02-19T03:07:39.329Z,9.81
2023-02-19T03:08:39.300Z,9.83
2023-02-19T03:09:39.295Z,9.83
2023-02-19T03:10:39.310Z,9.78
2023-02-19T03:11:39.276Z,9.81
2023-02-19T03:12:46.756Z,9.79
2023-02-19T03:13:39.258Z,9.79
2023-02-19T03:14:39.253Z,9.78
2023-02-19T03:15:39.249Z,9.81
2023-02-19T03:16:41.119Z,9.83
2023-02-19T03:17:39.222Z,9.83
2023-02-19T03:18:39.193Z,9.83
2023-02-19T03:19:39.181Z,9.79
2023-02-19T03:20:39.146Z,9.79
2023-02-19T03:21:39.158Z,9.81
2023-02-19T03:22:39.145Z,9.86
2023-02-19T03:23:39.157Z,9.86
2023-02-19T03:24:39.119Z,9.86
2023-02-19T03:25:39.106Z,9.86
2023-02-19T03:26:39.111Z,9.86
2023-02-19T03:27:39.111Z,9.86
2023-02-19T03:28:39.071Z,9.86
2023-02-19T03:29:39.076Z,9.86
2023-02-19T03:30:39.066Z,9.87
2023-02-19T03:31:39.133Z,9.87
2023-02-19T03:32:39.021Z,9.90
2023-02-19T03:33:39.514Z,9.93
2023-02-19T03:34:39.016Z,9.89
2023-02-19T03:35:39.014Z,9.87
2023-02-19T03:36:38.988Z,9.87
2023-02-19T03:37:38.999Z,9.86
2023-02-19T03:38:38.980Z,9.89
2023-02-19T03:39:38.963Z,9.90
2023-02-19T03:40:38.940Z,9.89
2023-02-19T03:41:38.923Z,9.90
2023-02-19T03:42:38.904Z,9.87
2023-02-19T03:43:39.010Z,9.86
2023-02-19T03:44:38.903Z,9.87
2023-02-19T03:45:38.925Z,9.90
2023-02-19T03:46:38.893Z,9.90
2023-02-19T03:47:38.856Z,9.89
2023-02-19T03:48:38.876Z,9.87
2023-02-19T03:49:38.873Z,9.86
2023-02-19T03:50:38.839Z,9.81
2023-02-19T03:51:38.814Z,9.83
2023-02-19T03:52:38.798Z,9.78
2023-02-19T03:53:38.809Z,9.75
2023-02-19T03:54:38.785Z,9.72
2023-02-19T03:55:38.795Z,9.69
2023-02-19T03:56:38.776Z,9.68
2023-02-19T03:57:38.766Z,9.65
2023-02-19T03:58:38.775Z,9.64
2023-02-19T03:59:38.743Z,9.64
2023-02-19T04:00:38.747Z,9.61
2023-02-19T04:01:38.717Z,9.60
2023-02-19T04:02:38.727Z,9.64
2023-02-19T04:03:38.694Z,9.68
2023-02-19T04:04:38.775Z,9.71
2023-02-19T04:05:38.696Z,9.68
2023-02-19T04:06:38.686Z,9.66
2023-02-19T04:07:38.652Z,9.65
2023-02-19T04:08:38.657Z,9.64
2023-02-19T04:09:38.618Z,9.64
2023-02-19T04:10:38.634Z,9.66
2023-02-19T04:11:38.605Z,9.65
2023-02-19T04:12:38.620Z,9.64
2023-02-19T04:13:38.577Z,9.58
2023-02-19T04:14:38.608Z,9.58
2023-02-19T04:15:38.573Z,9.56
2023-02-19T04:16:38.632Z,9.54
2023-02-19T04:17:38.558Z,9.56
2023-02-19T04:18:38.569Z,9.54
2023-02-19T04:19:38.528Z,9.58
2023-02-19T04:20:38.531Z,9.58
2023-02-19T04:21:38.515Z,9.56
2023-02-19T04:22:38.502Z,9.54
2023-02-19T04:23:38.492Z,9.56
2023-02-19T04:24:38.511Z,9.54
2023-02-19T04:25:38.485Z,9.54
2023-02-19T04:26:39.423Z,9.54
2023-02-19T04:27:38.442Z,9.54
2023-02-19T04:28:38.454Z,9.57
2023-02-19T04:29:39.387Z,9.58
2023-02-19T04:30:38.524Z,9.61
2023-02-19T04:31:38.495Z,9.60
2023-02-19T04:32:38.392Z,9.61
2023-02-19T04:33:38.382Z,9.64
2023-02-19T04:34:38.389Z,9.61
2023-02-19T04:35:38.427Z,9.61
2023-02-19T04:36:38.387Z,9.64
2023-02-19T04:37:38.345Z,9.68
2023-02-19T04:38:38.341Z,9.69
2023-02-19T04:39:38.303Z,9.69
2023-02-19T04:40:38.311Z,9.72
2023-02-19T04:41:38.277Z,9.79
2023-02-19T04:42:38.273Z,9.81
2023-02-19T04:43:38.275Z,9.83
2023-02-19T04:44:38.274Z,9.84
2023-02-19T04:45:38.252Z,9.84
2023-02-19T04:46:38.235Z,9.83
2023-02-19T04:47:38.232Z,9.78
2023-02-19T04:48:38.225Z,9.78
2023-02-19T04:49:38.208Z,9.83
2023-02-19T04:50:38.207Z,9.78
2023-02-19T04:51:38.185Z,9.81
2023-02-19T04:52:38.179Z,9.79
2023-02-19T04:53:38.175Z,9.83
2023-02-19T04:54:38.174Z,9.86
2023-02-19T04:55:38.134Z,9.83
2023-02-19T04:56:38.142Z,9.81
2023-02-19T04:57:38.146Z,9.84
2023-02-19T04:58:38.119Z,9.87
2023-02-19T04:59:38.094Z,9.84
2023-02-19T05:00:38.096Z,9.81
2023-02-19T05:01:38.106Z,9.79
2023-02-19T05:02:38.075Z,9.78
2023-02-19T05:03:38.050Z,9.74
2023-02-19T05:04:38.077Z,9.72
2023-02-19T05:05:38.034Z,9.71
2023-02-19T05:06:38.110Z,9.69
2023-02-19T05:07:38.017Z,9.72
2023-02-19T05:08:38.044Z,9.74
2023-02-19T05:09:37.982Z,9.74
2023-02-19T05:10:37.988Z,9.74
2023-02-19T05:11:37.960Z,9.75
2023-02-19T05:12:37.945Z,9.74
2023-02-19T05:13:38.030Z,9.71
2023-02-19T05:14:37.942Z,9.71
2023-02-19T05:15:37.956Z,9.69
2023-02-19T05:16:37.934Z,9.69
2023-02-19T05:17:37.902Z,9.68
2023-02-19T05:18:37.904Z,9.68
2023-02-19T05:19:37.889Z,9.65
2023-02-19T05:20:37.881Z,9.69
2023-02-19T05:21:38.801Z,9.68
2023-02-19T05:22:37.880Z,9.71
2023-02-19T05:23:37.855Z,9.71
2023-02-19T05:24:41.897Z,9.65
2023-02-19T05:25:37.814Z,9.64
2023-02-19T05:26:37.936Z,9.61
2023-02-19T05:27:37.801Z,9.58
2023-02-19T05:28:37.783Z,9.57
2023-02-19T05:29:37.802Z,9.57
2023-02-19T05:30:37.786Z,9.56
2023-02-19T05:31:37.799Z,9.54
2023-02-19T05:32:37.760Z,9.53
2023-02-19T05:33:37.727Z,9.50
2023-02-19T05:34:37.730Z,9.50
2023-02-19T05:35:37.696Z,9.38
2023-02-19T05:36:37.705Z,8.94
2023-02-19T05:37:37.939Z,8.65
2023-02-19T05:38:37.702Z,8.34
2023-02-19T05:39:37.680Z,8.05
2023-02-19T05:40:37.655Z,7.77
2023-02-19T05:41:37.637Z,7.55
2023-02-19T05:42:37.623Z,7.40
2023-02-19T05:43:37.638Z,7.30
2023-02-19T05:44:37.622Z,7.20
2023-02-19T05:45:37.603Z,7.10
2023-02-19T05:46:37.657Z,7.02
2023-02-19T05:47:37.572Z,6.87
2023-02-19T05:48:37.572Z,6.74
2023-02-19T05:49:37.574Z,6.69
2023-02-19T05:50:39.701Z,6.64
2023-02-19T05:51:37.553Z,6.56
2023-02-19T05:52:37.534Z,6.49
2023-02-19T05:53:37.501Z,6.44
2023-02-19T05:54:37.533Z,6.43
2023-02-19T05:55:37.485Z,6.41
2023-02-19T05:56:37.511Z,6.38
2023-02-19T05:57:37.475Z,6.38
2023-02-19T05:58:37.481Z,6.38
2023-02-19T05:59:37.454Z,6.37
2023-02-19T06:00:37.492Z,6.33
2023-02-19T06:01:37.442Z,6.28
2023-02-19T06:02:37.451Z,6.30
2023-02-19T06:03:37.448Z,6.28
2023-02-19T06:04:37.402Z,6.28
2023-02-19T06:05:37.402Z,6.27
2023-02-19T06:06:37.376Z,6.25
2023-02-19T06:07:37.358Z,6.21
2023-02-19T06:08:37.434Z,6.18
2023-02-19T06:09:37.356Z,6.17
2023-02-19T06:10:37.350Z,6.18
2023-02-19T06:11:37.323Z,6.15
2023-02-19T06:12:37.342Z,6.14
2023-02-19T06:13:37.310Z,6.14
2023-02-19T06:14:37.294Z,6.15
2023-02-19T06:15:37.297Z,6.12
2023-02-19T06:16:37.282Z,6.09
2023-02-19T06:17:37.252Z,6.08
2023-02-19T06:18:37.255Z,6.04
2023-02-19T06:19:37.234Z,6.03
2023-02-19T06:20:37.249Z,6.00
2023-02-19T06:21:37.203Z,6.01
2023-02-19T06:22:37.232Z,5.99
2023-02-19T06:23:37.195Z,5.99
2023-02-19T06:24:37.196Z,5.97
2023-02-19T06:25:37.227Z,5.97
2023-02-19T06:26:37.173Z,5.96
2023-02-19T06:27:37.140Z,5.94
2023-02-19T06:28:37.153Z,5.93
2023-02-19T06:29:37.141Z,5.91
2023-02-19T06:30:37.120Z,5.91
2023-02-19T06:31:37.166Z,5.90
2023-02-19T06:32:37.132Z,5.86
2023-02-19T06:33:37.108Z,5.85
2023-02-19T06:34:37.107Z,5.83
2023-02-19T06:35:37.063Z,5.83
2023-02-19T06:36:37.083Z,5.82
2023-02-19T06:37:37.060Z,5.81
2023-02-19T06:38:37.066Z,5.82
2023-02-19T06:39:37.119Z,5.75
2023-02-19T06:40:37.022Z,5.74
2023-02-19T06:41:37.020Z,5.67
2023-02-19T06:42:37.028Z,5.64
2023-02-19T06:43:37.004Z,5.64
2023-02-19T06:44:36.981Z,5.63
2023-02-19T06:45:36.964Z,5.63
2023-02-19T06:46:37.079Z,5.64
2023-02-19T06:47:36.948Z,5.61
2023-02-19T06:48:36.963Z,5.60
2023-02-19T06:49:36.922Z,5.61
2023-02-19T06:50:36.933Z,5.61
2023-02-19T06:51:36.908Z,5.61
2023-02-19T06:52:36.926Z,5.63
2023-02-19T06:53:36.930Z,5.61
2023-02-19T06:54:36.885Z,5.60
2023-02-19T06:55:37.825Z,5.57
2023-02-19T06:56:36.866Z,5.57
2023-02-19T06:57:36.889Z,5.56
2023-02-19T06:58:36.863Z,5.54
2023-02-19T06:59:36.870Z,5.53
2023-02-19T07:00:36.858Z,5.49
2023-02-19T07:01:36.817Z,5.51
2023-02-19T07:02:37.000Z,5.48
2023-02-19T07:03:36.772Z,5.49
2023-02-19T07:04:36.772Z,5.46
2023-02-19T07:05:36.763Z,5.43
2023-02-19T07:06:36.840Z,5.42
2023-02-19T07:07:36.742Z,5.36
2023-02-19T07:08:36.778Z,5.39
2023-02-19T07:09:36.726Z,5.40
2023-02-19T07:10:36.779Z,5.43
2023-02-19T07:11:36.690Z,5.40
2023-02-19T07:12:36.680Z,5.40
2023-02-19T07:13:36.667Z,5.43
2023-02-19T07:14:36.674Z,5.38
2023-02-19T07:15:36.653Z,5.35
2023-02-19T07:16:36.669Z,5.33
2023-02-19T07:17:36.624Z,5.33
2023-02-19T07:18:36.637Z,5.33
2023-02-19T07:19:36.609Z,5.35
2023-02-19T07:20:36.613Z,5.25
2023-02-19T07:21:36.573Z,5.22
2023-02-19T07:22:36.601Z,5.24
2023-02-19T07:23:36.563Z,5.24
2023-02-19T07:24:36.558Z,5.22
2023-02-19T07:25:36.681Z,5.22
2023-02-19T07:26:36.528Z,5.25
2023-02-19T07:27:36.532Z,5.31
2023-02-19T07:28:36.523Z,5.30
2023-02-19T07:29:36.538Z,5.30
2023-02-19T07:30:36.531Z,5.31
2023-02-19T07:31:36.547Z,5.28
2023-02-19T07:32:36.490Z,5.31
2023-02-19T07:33:36.526Z,5.30
2023-02-19T07:34:36.451Z,5.28
2023-02-19T07:35:36.431Z,5.24
2023-02-19T07:36:36.438Z,5.27
2023-02-19T07:37:36.409Z,5.24
2023-02-19T07:38:36.414Z,5.27
2023-02-19T07:39:36.539Z,5.25
2023-02-19T07:40:36.395Z,5.24
2023-02-19T07:41:36.614Z,5.27
2023-02-19T07:42:36.379Z,5.25
2023-02-19T07:43:36.381Z,5.25
2023-02-19T07:44:36.389Z,5.25
2023-02-19T07:45:36.338Z,5.21
2023-02-19T07:46:36.390Z,5.22
2023-02-19T07:47:36.352Z,5.20
2023-02-19T07:48:36.351Z,5.18
2023-02-19T07:49:36.293Z,5.17
2023-02-19T07:50:36.303Z,5.17
2023-02-19T07:51:36.294Z,5.17
2023-02-19T07:52:36.296Z,5.20
2023-02-19T07:53:36.289Z,5.24
2023-02-19T07:54:36.368Z,5.20
2023-02-19T07:55:36.249Z,5.15
2023-02-19T07:56:36.218Z,5.12
2023-02-19T07:57:36.222Z,5.10
2023-02-19T07:58:36.216Z,5.12
2023-02-19T07:59:36.185Z,5.15
2023-02-19T08:00:36.180Z,5.22
2023-02-19T08:01:36.218Z,5.21
2023-02-19T08:02:36.198Z,5.18
2023-02-19T08:03:36.199Z,5.18
2023-02-19T08:04:36.252Z,5.21
2023-02-19T08:05:36.123Z,5.21
2023-02-19T08:06:36.135Z,5.18
2023-02-19T08:07:36.109Z,5.17
2023-02-19T08:08:36.101Z,5.17
2023-02-19T08:09:36.097Z,5.20
2023-02-19T08:10:36.052Z,5.24
2023-02-19T08:11:36.045Z,5.27
2023-02-19T08:12:36.254Z,5.38
2023-02-19T08:13:36.078Z,5.36
2023-02-19T08:14:36.033Z,5.39
2023-02-19T08:15:36.033Z,5.36
2023-02-19T08:16:42.891Z,5.33
2023-02-19T08:17:37.012Z,5.28
2023-02-19T08:18:35.988Z,5.24
2023-02-19T08:19:36.009Z,5.22
2023-02-19T08:20:36.008Z,5.27
2023-02-19T08:21:35.962Z,5.28
2023-02-19T08:22:35.933Z,5.33
2023-02-19T08:23:35.952Z,5.39
2023-02-19T08:24:35.907Z,5.39
2023-02-19T08:25:35.919Z,5.42
2023-02-19T08:26:35.902Z,5.48
2023-02-19T08:27:35.904Z,5.48
2023-02-19T08:28:35.867Z,5.53
2023-02-19T08:29:35.891Z,5.56
2023-02-19T08:30:35.905Z,5.43
2023-02-19T08:31:36.026Z,5.35
2023-02-19T08:32:35.836Z,5.28
2023-02-19T08:33:35.861Z,5.24
2023-02-19T08:34:35.810Z,5.21
2023-02-19T08:35:35.826Z,5.20
2023-02-19T08:36:35.798Z,5.13
2023-02-19T08:37:35.797Z,5.10
2023-02-19T08:38:35.814Z,5.12
2023-02-19T08:39:35.793Z,5.20
2023-02-19T08:40:35.741Z,5.25
2023-02-19T08:41:35.752Z,5.31
2023-02-19T08:42:35.722Z,5.40
2023-02-19T08:43:35.818Z,5.48
2023-02-19T08:44:35.717Z,5.49
2023-02-19T08:45:35.697Z,5.53
2023-02-19T08:46:35.683Z,5.54
2023-02-19T08:47:35.678Z,5.60
2023-02-19T08:48:35.681Z,5.60
2023-02-19T08:49:35.647Z,5.61
2023-02-19T08:50:35.639Z,5.63
2023-02-19T08:51:35.655Z,5.67
2023-02-19T08:52:35.620Z,5.63
2023-02-19T08:53:35.626Z,5.61
2023-02-19T08:54:37.216Z,5.65
2023-02-19T08:55:35.599Z,5.68
2023-02-19T08:56:35.577Z,5.76
2023-02-19T08:57:35.583Z,5.83
2023-02-19T08:58:35.551Z,5.91
2023-02-19T08:59:35.544Z,5.93
2023-02-19T09:00:35.597Z,5.91
2023-02-19T09:01:35.578Z,5.93
2023-02-19T09:02:35.529Z,5.91
2023-02-19T09:03:35.530Z,5.89
2023-02-19T09:04:35.504Z,5.85
2023-02-19T09:05:35.498Z,5.79
2023-02-19T09:06:35.554Z,5.79
2023-02-19T09:07:35.501Z,5.86
2023-02-19T09:08:35.453Z,5.86
2023-02-19T09:09:35.447Z,5.89
2023-02-19T09:10:35.425Z,5.86
2023-02-19T09:11:35.447Z,5.85
2023-02-19T09:13:35.630Z,5.74
2023-02-19T09:14:33.838Z,5.76
2023-02-19T09:15:35.597Z,5.79
2023-02-19T09:16:33.771Z,5.89
2023-02-19T09:17:33.761Z,6.03
2023-02-19T09:18:33.770Z,6.18
2023-02-19T09:19:33.734Z,6.28
2023-02-19T09:20:33.731Z,6.36
2023-02-19T09:21:33.732Z,6.44
2023-02-19T09:22:33.718Z,6.56
2023-02-19T09:23:33.692Z,6.66
2023-02-19T09:24:33.681Z,6.73
2023-02-19T09:25:33.677Z,6.81
2023-02-19T09:26:33.676Z,6.89
2023-02-19T09:27:34.658Z,7.02
2023-02-19T09:28:33.655Z,7.17
2023-02-19T09:29:33.624Z,7.24
2023-02-19T09:30:33.687Z,7.27
2023-02-19T09:31:33.723Z,7.32
2023-02-19T09:32:33.636Z,7.34
2023-02-19T09:33:33.590Z,7.48
2023-02-19T09:34:33.606Z,7.57
2023-02-19T09:35:33.574Z,7.69
2023-02-19T09:36:33.579Z,7.68
2023-02-19T09:37:34.237Z,7.67
2023-02-19T09:38:33.556Z,7.68
2023-02-19T09:39:33.539Z,7.67
2023-02-19T09:40:33.528Z,7.57
2023-02-19T09:41:33.496Z,7.42
2023-02-19T09:42:33.533Z,7.30
2023-02-19T09:43:33.503Z,7.24
2023-02-19T09:44:33.517Z,7.13
2023-02-19T09:45:33.585Z,7.10
2023-02-19T09:46:33.511Z,7.07
2023-02-19T09:47:33.460Z,7.06
2023-02-19T09:48:33.446Z,7.06
2023-02-19T09:49:33.430Z,7.09
2023-02-19T09:50:33.423Z,7.15
2023-02-19T09:51:33.405Z,7.15
2023-02-19T09:52:33.431Z,7.16
2023-02-19T09:53:33.395Z,7.16
2023-02-19T09:54:33.408Z,7.23
2023-02-19T09:55:33.357Z,7.23
2023-02-19T09:56:33.352Z,7.25
2023-02-19T09:57:33.423Z,7.25
2023-02-19T09:58:33.370Z,7.31
2023-02-19T09:59:34.169Z,7.31
2023-02-19T10:00:33.332Z,7.35
2023-02-19T10:01:33.292Z,7.34
2023-02-19T10:02:33.310Z,7.35
2023-02-19T10:03:33.290Z,7.31
2023-02-19T10:04:33.315Z,7.39
2023-02-19T10:05:33.258Z,7.35
2023-02-19T10:06:33.241Z,7.34
2023-02-19T10:07:33.231Z,7.34
2023-02-19T10:08:33.227Z,7.49
2023-02-19T10:09:33.210Z,7.58
2023-02-19T10:10:33.250Z,7.67
2023-02-19T10:11:33.182Z,7.68
2023-02-19T10:12:33.174Z,7.77
2023-02-19T10:13:33.169Z,7.90
2023-02-19T10:14:33.162Z,8.00
2023-02-19T10:15:33.234Z,8.08
2023-02-19T10:16:33.187Z,8.16
2023-02-19T10:17:33.112Z,8.25
2023-02-19T10:18:33.142Z,8.34
2023-02-19T10:19:33.086Z,8.43
2023-02-19T10:20:33.105Z,8.44
2023-02-19T10:21:33.069Z,8.40
2023-02-19T10:22:33.076Z,8.53
2023-02-19T10:23:33.055Z,8.81
2023-02-19T10:24:33.055Z,9.02
2023-02-19T10:25:33.050Z,8.99
2023-02-19T10:26:33.033Z,9.04
2023-02-19T10:27:33.013Z,9.04
2023-02-19T10:28:33.022Z,9.02
2023-02-19T10:29:32.986Z,9.04
2023-02-19T10:30:33.378Z,9.13
2023-02-19T10:31:33.057Z,9.15
2023-02-19T10:32:32.961Z,9.05
2023-02-19T10:33:32.947Z,9.18
2023-02-19T10:34:32.943Z,9.13
2023-02-19T10:35:32.943Z,8.98
2023-02-19T10:36:32.954Z,8.96
2023-02-19T10:37:32.907Z,8.94
2023-02-19T10:38:32.907Z,8.94
2023-02-19T10:39:32.928Z,8.91
2023-02-19T10:40:32.886Z,8.91
2023-02-19T10:41:32.876Z,8.91
2023-02-19T10:42:32.863Z,8.87
2023-02-19T10:43:32.847Z,8.73
2023-02-19T10:44:32.839Z,8.61
2023-02-19T10:45:32.814Z,8.65
2023-02-19T10:46:32.853Z,8.71
2023-02-19T10:47:32.972Z,8.79
2023-02-19T10:48:32.816Z,8.92
2023-02-19T10:49:32.929Z,9.14
2023-02-19T10:50:32.768Z,9.23
2023-02-19T10:51:32.758Z,9.39
2023-02-19T10:52:32.762Z,9.57
2023-02-19T10:53:32.729Z,9.46
2023-02-19T10:54:32.771Z,9.39
2023-02-19T10:55:32.797Z,9.40
2023-02-19T10:56:32.728Z,9.32
2023-02-19T10:57:32.738Z,9.20
2023-02-19T10:58:32.697Z,9.08
2023-02-19T10:59:32.668Z,8.96
2023-02-19T11:00:32.668Z,8.89
2023-02-19T11:01:32.682Z,8.81
2023-02-19T11:02:32.661Z,8.65
2023-02-19T11:03:32.631Z,8.62
2023-02-19T11:04:32.663Z,8.62
2023-02-19T11:05:32.593Z,8.70
2023-02-19T11:06:34.930Z,8.71
2023-02-19T11:07:32.565Z,8.76
2023-02-19T11:08:32.605Z,8.73
2023-02-19T11:09:32.587Z,8.63
2023-02-19T11:10:32.566Z,8.68
2023-02-19T11:11:32.536Z,8.83
2023-02-19T11:12:32.546Z,8.86
2023-02-19T11:13:32.604Z,8.87
2023-02-19T11:14:32.552Z,8.83
2023-02-19T11:15:32.500Z,8.89
2023-02-19T11:16:32.496Z,8.96
2023-02-19T11:17:32.687Z,9.05
2023-02-19T11:18:32.548Z,9.11
2023-02-19T11:19:32.614Z,9.15
2023-02-19T11:20:32.700Z,9.24
2023-02-19T11:21:32.465Z,9.13
2023-02-19T11:22:32.461Z,8.96
2023-02-19T11:23:32.433Z,8.79
2023-02-19T11:24:32.416Z,8.43
2023-02-19T11:25:32.408Z,8.40
2023-02-19T11:26:32.390Z,8.50
2023-02-19T11:27:32.369Z,8.59
2023-02-19T11:28:32.353Z,8.66
2023-02-19T11:29:32.340Z,8.66
2023-02-19T11:30:35.266Z,8.62
2023-02-19T11:31:32.411Z,8.59
2023-02-19T11:32:32.319Z,8.58
2023-02-19T11:33:32.309Z,8.53
2023-02-19T11:34:32.306Z,8.52
2023-02-19T11:35:32.287Z,8.43
2023-02-19T11:36:32.300Z,8.38
2023-02-19T11:37:32.268Z,8.33
2023-02-19T11:38:32.273Z,8.28
2023-02-19T11:39:32.237Z,8.33
2023-02-19T11:40:32.243Z,8.33
2023-02-19T11:41:32.212Z,8.52
2023-02-19T11:42:32.216Z,8.86
2023-02-19T11:43:32.215Z,9.20
2023-02-19T11:44:32.197Z,9.43
2023-02-19T11:45:32.162Z,9.51
2023-02-19T11:46:32.219Z,9.74
2023-02-19T11:47:32.172Z,9.99
2023-02-19T11:48:32.148Z,10.27
2023-02-19T11:49:32.367Z,10.42
2023-02-19T11:50:32.134Z,10.59
2023-02-19T11:51:32.129Z,10.61
2023-02-19T11:52:32.127Z,10.60
2023-02-19T11:53:32.117Z,10.44
2023-02-19T11:54:32.100Z,10.26
2023-02-19T11:55:32.080Z,10.02
2023-02-19T11:56:32.074Z,9.83
2023-02-19T11:57:32.052Z,9.69
2023-02-19T11:58:32.048Z,9.66
2023-02-19T11:59:32.040Z,9.65
2023-02-19T12:00:32.043Z,9.71
2023-02-19T12:01:32.004Z,9.79
2023-02-19T12:02:32.023Z,9.75
2023-02-19T12:03:31.995Z,9.64
2023-02-19T12:04:31.989Z,9.75
2023-02-19T12:05:31.963Z,9.84
2023-02-19T12:06:31.972Z,9.86
2023-02-19T12:07:31.940Z,9.90
2023-02-19T12:08:31.956Z,10.01
2023-02-19T12:09:31.922Z,9.97
2023-02-19T12:10:31.914Z,10.07
2023-02-19T12:11:32.248Z,10.05
2023-02-19T12:12:31.897Z,10.05
2023-02-19T12:13:31.888Z,10.07
2023-02-19T12:14:31.893Z,10.04
2023-02-19T12:15:31.865Z,9.90
2023-02-19T12:16:31.889Z,9.75
2023-02-19T12:17:31.963Z,9.64
2023-02-19T12:18:33.322Z,9.56
2023-02-19T12:19:31.825Z,9.53
2023-02-19T12:20:32.198Z,9.50
2023-02-19T12:21:31.805Z,9.48
2023-02-19T12:22:31.798Z,9.48
2023-02-19T12:23:31.777Z,9.43
2023-02-19T12:24:31.790Z,9.39
2023-02-19T12:25:34.363Z,9.42
2023-02-19T12:26:31.771Z,9.46
2023-02-19T12:27:31.722Z,9.51
2023-02-19T12:28:31.730Z,9.56
2023-02-19T12:29:31.724Z,9.61
2023-02-19T12:30:31.843Z,10.02
2023-02-19T12:31:33.109Z,10.61
2023-02-19T12:32:31.683Z,10.96
2023-02-19T12:33:31.681Z,11.04
2023-02-19T12:34:31.670Z,11.14
2023-02-19T12:35:31.641Z,11.14
2023-02-19T12:36:31.631Z,11.15
2023-02-19T12:37:31.609Z,11.19
2023-02-19T12:38:31.626Z,10.97
2023-02-19T12:39:31.596Z,10.47
2023-02-19T12:40:31.610Z,10.33
2023-02-19T12:41:31.578Z,10.33
2023-02-19T12:42:31.829Z,10.40
2023-02-19T12:43:31.558Z,10.59
2023-02-19T12:44:31.562Z,10.52
2023-02-19T12:45:31.737Z,10.45
2023-02-19T12:46:31.534Z,10.29
2023-02-19T12:47:31.520Z,10.27
2023-02-19T12:48:31.512Z,10.17
2023-02-19T12:49:31.489Z,10.09
2023-02-19T12:50:31.490Z,10.33
2023-02-19T12:51:31.596Z,10.42
2023-02-19T12:52:31.469Z,10.30
2023-02-19T12:53:31.441Z,10.26
2023-02-19T12:54:31.456Z,10.33
2023-02-19T12:55:31.429Z,10.96
2023-02-19T12:56:31.424Z,11.42
2023-02-19T12:57:31.410Z,11.76
2023-02-19T12:58:31.404Z,12.12
2023-02-19T12:59:31.401Z,12.21
2023-02-19T13:00:31.401Z,12.41
2023-02-19T13:01:31.419Z,12.32
2023-02-19T13:02:31.407Z,11.94
2023-02-19T13:03:31.357Z,11.61
2023-02-19T13:04:31.327Z,11.29
2023-02-19T13:05:31.312Z,11.07
2023-02-19T13:06:31.339Z,10.74
2023-02-19T13:07:31.315Z,10.45
2023-02-19T13:08:33.685Z,10.33
2023-02-19T13:09:31.302Z,10.20
2023-02-19T13:10:31.275Z,10.20
2023-02-19T13:11:31.323Z,10.15
2023-02-19T13:12:31.240Z,10.14
2023-02-19T13:13:31.245Z,10.07
2023-02-19T13:14:31.229Z,10.04
2023-02-19T13:15:31.217Z,10.18
2023-02-19T13:16:31.259Z,10.14
2023-02-19T13:17:31.237Z,10.18